sim
Sign-in with your pilot id or email,
or register
Callsign
Passwort

Schedule Details

Flight Number: RYR7777 (3)
Departure: Chania International Airport (LGSA) at 12:05
Arrival: Thessaloniki International Airport (LGTS) at 13:25
Route: Ryanair Passenger Schedule. Enter filed route here before submitting Pirep.

Weather Information
Getting current METAR information for LGSA 211050Z 31008KT 9999 FEW020 16/11 Q1021
Getting current METAR information for LGTS 211050Z 34016KT CAVOK 16/M01 Q1023 NOSIG

Schedule Frequency

Route Map